Time;durP1;ratioP1;P1;durP2;ratioP2;P2;SDS_P1;SDS_P2;PMS_P1;PMS_P2;Temp;Humidity;BMP_temperature;BMP_pressure;BME280_temperature;BME280_humidity;BME280_pressure;Samples;Min_cycle;Max_cycle;Signal;HPM_P1;HPM_P2
2023/06/11 00:02:03;;;;;;;8.45;6.70;;;;;;;17.79;93.41;96299.75;5019993;28;20117;-66
2023/06/11 00:04:34;;;;;;;7.65;6.28;;;;;;;17.75;93.70;96299.00;5019995;28;20045;-68
2023/06/11 00:07:01;;;;;;;8.88;6.40;;;;;;;17.73;94.06;96287.59;5021952;28;20389;-68
2023/06/11 00:09:28;;;;;;;7.90;6.40;;;;;;;17.66;94.55;96293.25;5018316;28;20142;-68
2023/06/11 00:11:54;;;;;;;9.80;6.63;;;;;;;17.64;95.23;96298.44;5022592;28;20037;-67
2023/06/11 00:14:21;;;;;;;9.43;6.18;;;;;;;17.58;95.61;96290.59;5016971;28;20042;-67
2023/06/11 00:16:47;;;;;;;9.02;6.40;;;;;;;17.56;95.78;96297.78;5024309;28;20049;-67
2023/06/11 00:19:13;;;;;;;8.82;7.00;;;;;;;17.57;95.63;96297.38;5018313;28;20118;-67
2023/06/11 00:21:43;;;;;;;8.07;6.30;;;;;;;17.65;95.26;96311.09;5028851;28;20417;-67
2023/06/11 00:24:13;;;;;;;9.13;6.97;;;;;;;17.63;95.42;96317.03;5020857;28;20045;-65
2023/06/11 00:26:40;;;;;;;8.90;6.80;;;;;;;17.61;95.79;96319.47;5003693;28;20049;-68
2023/06/11 00:29:06;;;;;;;10.68;6.47;;;;;;;17.58;95.70;96312.75;4998692;28;20046;-67
2023/06/11 00:31:31;;;;;;;9.27;6.72;;;;;;;17.56;95.97;96311.63;5041800;28;20110;-67
2023/06/11 00:33:56;;;;;;;10.38;6.57;;;;;;;17.49;96.79;96311.75;5041787;28;20045;-67
2023/06/11 00:36:25;;;;;;;9.95;7.00;;;;;;;17.47;97.03;96314.16;5037605;28;20045;-67
2023/06/11 00:38:51;;;;;;;9.55;6.47;;;;;;;17.44;97.56;96315.00;5041535;28;20072;-66
2023/06/11 00:41:16;;;;;;;8.25;6.85;;;;;;;17.44;97.56;96320.53;5038397;28;20096;-67
2023/06/11 00:43:42;;;;;;;9.68;6.80;;;;;;;17.39;97.90;96313.47;5025988;28;20037;-66
2023/06/11 00:46:10;;;;;;;10.73;7.57;;;;;;;17.41;98.05;96316.59;5024147;28;20064;-68
2023/06/11 00:48:38;;;;;;;10.85;7.32;;;;;;;17.39;98.28;96300.44;5027777;28;20045;-67
2023/06/11 00:51:05;;;;;;;10.43;7.95;;;;;;;17.38;98.50;96317.47;5022441;28;20052;-67
2023/06/11 00:53:30;;;;;;;9.88;8.18;;;;;;;17.40;98.48;96315.06;5029240;28;20060;-67
2023/06/11 00:55:55;;;;;;;9.27;7.38;;;;;;;17.38;98.60;96318.25;5026333;28;20490;-66
2023/06/11 00:58:22;;;;;;;10.15;7.43;;;;;;;17.28;99.74;96326.72;5020487;28;20955;-65
2023/06/11 01:00:50;;;;;;;10.15;7.60;;;;;;;17.27;99.87;96322.38;5023657;28;20099;-65
2023/06/11 01:03:21;;;;;;;10.25;8.23;;;;;;;17.24;100.00;96323.25;5021029;28;20033;-66
2023/06/11 01:05:49;;;;;;;12.30;8.43;;;;;;;17.19;100.00;96316.94;5024907;28;20037;-66
2023/06/11 01:08:19;;;;;;;10.82;8.20;;;;;;;17.35;100.00;96318.31;5020185;28;20046;-65
2023/06/11 01:10:45;;;;;;;10.93;7.63;;;;;;;17.40;99.87;96317.81;5024388;28;20045;-66
2023/06/11 01:13:10;;;;;;;11.45;8.27;;;;;;;17.29;100.00;96318.00;5020290;28;20079;-67
2023/06/11 01:15:36;;;;;;;11.05;8.32;;;;;;;17.29;100.00;96323.53;5023711;28;20116;-66
2023/06/11 01:18:09;;;;;;;15.85;12.05;;;;;;;17.25;100.00;96325.59;5024262;28;20517;-66
2023/06/11 01:20:41;;;;;;;10.32;8.10;;;;;;;17.18;100.00;96326.47;5022599;28;20033;-66
2023/06/11 01:23:16;;;;;;;14.75;8.27;;;;;;;17.19;100.00;96330.78;5019408;28;20099;-66
2023/06/11 01:26:11;;;;;;;10.43;8.00;;;;;;;17.24;100.00;96329.53;5025311;28;20049;-66
2023/06/11 01:28:38;;;;;;;13.00;9.15;;;;;;;17.22;100.00;96329.19;5024469;28;20073;-67
2023/06/11 01:31:10;;;;;;;11.38;8.30;;;;;;;17.17;100.00;96332.44;5020137;28;20042;-67
2023/06/11 01:33:36;;;;;;;11.20;8.30;;;;;;;17.18;100.00;96336.78;5023869;28;20144;-67
2023/06/11 01:36:01;;;;;;;12.85;8.63;;;;;;;17.16;100.00;96339.94;5023970;28;20132;-67
2023/06/11 01:38:30;;;;;;;12.13;9.20;;;;;;;17.15;100.00;96337.59;5020412;28;20041;-67
2023/06/11 01:40:58;;;;;;;9.65;8.18;;;;;;;17.21;100.00;96344.22;5023289;28;20202;-65
2023/06/11 01:43:25;;;;;;;11.27;8.70;;;;;;;17.20;100.00;96339.91;5019043;28;20599;-66
2023/06/11 01:45:51;;;;;;;12.57;8.88;;;;;;;17.25;100.00;96341.38;5023527;28;20048;-67
2023/06/11 01:48:16;;;;;;;11.73;8.57;;;;;;;17.20;100.00;96334.38;5021048;28;20061;-67
2023/06/11 01:50:42;;;;;;;12.23;9.48;;;;;;;17.12;100.00;96339.19;5026061;28;20041;-66
2023/06/11 01:53:09;;;;;;;13.18;9.15;;;;;;;17.14;100.00;96336.81;5020698;28;20045;-68
2023/06/11 01:55:36;;;;;;;10.73;8.55;;;;;;;17.06;100.00;96331.81;5024529;28;20037;-66
2023/06/11 01:58:02;;;;;;;10.20;8.27;;;;;;;17.05;100.00;96344.06;5023441;28;20123;-67
2023/06/11 02:00:27;;;;;;;11.85;8.00;;;;;;;16.98;100.00;96336.69;5018152;28;20414;-66
2023/06/11 02:02:53;;;;;;;11.90;9.15;;;;;;;16.84;100.00;96340.44;5023616;28;20560;-68
2023/06/11 02:05:18;;;;;;;12.43;8.77;;;;;;;16.76;100.00;96344.44;5019406;28;20046;-67
2023/06/11 02:07:45;;;;;;;13.13;9.30;;;;;;;16.68;100.00;96340.22;5023500;28;20069;-67
2023/06/11 02:10:10;;;;;;;13.35;9.60;;;;;;;16.70;100.00;96338.59;5018231;28;20045;-68
2023/06/11 02:12:35;;;;;;;12.45;8.88;;;;;;;16.71;100.00;96337.41;5024271;28;20449;-66
2023/06/11 02:15:01;;;;;;;13.52;9.38;;;;;;;16.63;100.00;96339.47;5023706;28;20046;-66
2023/06/11 02:17:26;;;;;;;12.07;9.10;;;;;;;16.54;100.00;96336.44;5019268;28;20038;-66
2023/06/11 02:19:52;;;;;;;12.57;9.77;;;;;;;16.55;100.00;96338.00;5022771;28;20037;-67
2023/06/11 02:22:17;;;;;;;14.20;9.80;;;;;;;16.53;100.00;96332.13;5018161;28;20121;-65
2023/06/11 02:24:43;;;;;;;13.73;10.07;;;;;;;16.48;100.00;96335.34;5022638;28;20502;-66
2023/06/11 02:27:08;;;;;;;12.60;10.10;;;;;;;16.47;100.00;96331.00;5017522;28;20053;-67
2023/06/11 02:29:34;;;;;;;13.68;10.10;;;;;;;16.48;100.00;96327.03;5023102;28;20415;-67
2023/06/11 02:32:00;;;;;;;13.02;10.18;;;;;;;16.50;100.00;96335.69;5023345;28;20238;-68
2023/06/11 02:34:25;;;;;;;12.95;9.57;;;;;;;16.54;100.00;96330.91;5018868;28;20128;-67
2023/06/11 02:36:52;;;;;;;15.70;10.27;;;;;;;16.52;100.00;96329.75;5022754;28;20042;-66
2023/06/11 02:39:17;;;;;;;16.13;11.25;;;;;;;16.45;100.00;96336.16;5019404;28;20072;-65
2023/06/11 02:41:42;;;;;;;12.63;9.52;;;;;;;16.50;100.00;96340.47;5022894;28;20057;-67
2023/06/11 02:44:08;;;;;;;13.00;10.32;;;;;;;16.46;100.00;96334.97;5018368;28;20041;-68
2023/06/11 02:46:33;;;;;;;13.25;10.00;;;;;;;16.48;100.00;96340.09;5022713;28;20038;-66
2023/06/11 02:48:58;;;;;;;14.32;10.73;;;;;;;16.35;100.00;96340.63;5023333;28;20048;-68
2023/06/11 02:51:24;;;;;;;12.38;10.32;;;;;;;16.35;100.00;96326.00;5017936;28;20399;-68
2023/06/11 02:53:49;;;;;;;13.00;10.55;;;;;;;16.32;100.00;96335.94;5022507;28;20068;-67
2023/06/11 02:56:15;;;;;;;13.82;9.82;;;;;;;16.30;100.00;96323.72;5016802;28;20057;-68
2023/06/11 02:58:40;;;;;;;14.20;9.60;;;;;;;16.29;100.00;96331.22;5022638;28;20132;-68
2023/06/11 03:01:05;;;;;;;14.10;10.75;;;;;;;16.26;100.00;96334.81;5018476;28;20037;-66
2023/06/11 03:03:31;;;;;;;12.80;9.95;;;;;;;16.24;100.00;96339.97;5021366;28;20038;-71
2023/06/11 03:05:56;;;;;;;14.82;10.73;;;;;;;16.27;100.00;96330.06;5022234;28;20067;-64
2023/06/11 03:08:22;;;;;;;14.43;10.95;;;;;;;16.30;100.00;96332.03;5017444;28;20148;-67
2023/06/11 03:10:47;;;;;;;13.68;11.13;;;;;;;16.22;100.00;96342.34;5022287;28;20037;-67
2023/06/11 03:13:12;;;;;;;14.57;10.75;;;;;;;16.16;100.00;96338.50;5032590;28;20048;-65
2023/06/11 03:15:38;;;;;;;16.35;11.25;;;;;;;16.08;100.00;96343.31;5022472;28;20075;-66
2023/06/11 03:18:03;;;;;;;16.20;11.98;;;;;;;16.09;100.00;96333.81;5020751;28;20171;-68
2023/06/11 03:20:29;;;;;;;18.05;11.27;;;;;;;15.99;100.00;96343.00;5021121;28;20072;-66
2023/06/11 03:22:54;;;;;;;15.63;12.40;;;;;;;15.86;100.00;96346.31;5022006;28;20045;-67
2023/06/11 03:25:19;;;;;;;17.13;11.77;;;;;;;15.85;100.00;96353.00;5017497;28;20043;-66
2023/06/11 03:27:45;;;;;;;18.90;11.60;;;;;;;15.79;100.00;96357.41;5020631;28;20041;-65
2023/06/11 03:30:11;;;;;;;15.63;11.93;;;;;;;15.79;100.00;96353.84;5016926;28;20438;-66
2023/06/11 03:32:38;;;;;;;17.50;12.32;;;;;;;15.74;100.00;96357.06;5022175;28;20137;-66
2023/06/11 03:35:04;;;;;;;17.40;13.02;;;;;;;15.65;100.00;96363.81;5017881;28;20041;-68
2023/06/11 03:37:29;;;;;;;17.88;12.25;;;;;;;15.66;100.00;96368.16;5022002;28;20148;-66
2023/06/11 03:39:54;;;;;;;21.38;13.80;;;;;;;15.63;100.00;96363.44;5021987;28;20048;-66
2023/06/11 03:42:20;;;;;;;18.35;13.70;;;;;;;15.64;100.00;96362.25;5017500;28;20044;-65
2023/06/11 03:44:45;;;;;;;17.13;12.95;;;;;;;15.63;100.00;96362.69;5021526;28;20120;-67
2023/06/11 03:47:10;;;;;;;17.88;13.50;;;;;;;15.60;100.00;96366.25;5016722;28;20049;-66
2023/06/11 03:49:36;;;;;;;18.20;13.95;;;;;;;15.58;100.00;96363.13;5021785;28;20049;-66
2023/06/11 03:52:01;;;;;;;17.02;13.27;;;;;;;15.57;100.00;96369.81;5020130;28;20502;-67
2023/06/11 03:54:27;;;;;;;17.63;12.55;;;;;;;15.57;100.00;96367.81;5016970;28;20392;-67
2023/06/11 03:56:52;;;;;;;18.73;12.90;;;;;;;15.54;100.00;96374.19;5021388;28;20049;-68
2023/06/11 03:59:17;;;;;;;19.58;13.77;;;;;;;15.51;100.00;96382.50;5017226;28;20123;-67
2023/06/11 04:01:43;;;;;;;18.90;13.30;;;;;;;15.52;100.00;96371.06;5022606;28;20048;-67
2023/06/11 04:04:08;;;;;;;19.88;13.88;;;;;;;15.55;100.00;96374.97;5016650;28;20510;-66
2023/06/11 04:06:38;;;;;;;17.20;13.43;;;;;;;15.62;100.00;96372.91;5021649;28;20199;-66
2023/06/11 04:09:04;;;;;;;16.40;12.68;;;;;;;15.65;100.00;96363.03;5020529;28;20045;-67
2023/06/11 04:11:30;;;;;;;17.90;13.70;;;;;;;15.74;100.00;96365.34;5010149;28;20045;-67
2023/06/11 04:13:55;;;;;;;18.83;13.35;;;;;;;15.74;100.00;96371.66;5021494;28;20044;-67
2023/06/11 04:16:21;;;;;;;19.38;13.35;;;;;;;15.73;100.00;96372.81;5019109;28;20858;-67
2023/06/11 04:18:50;;;;;;;17.83;12.63;;;;;;;15.89;100.00;96372.31;5022022;28;20060;-67
2023/06/11 04:21:16;;;;;;;18.08;12.88;;;;;;;15.95;100.00;96375.41;5001444;28;20042;-67
2023/06/11 04:23:41;;;;;;;17.65;11.95;;;;;;;16.01;100.00;96374.56;5013996;28;20052;-67
2023/06/11 04:26:10;;;;;;;16.38;12.60;;;;;;;16.10;100.00;96376.84;5020637;28;20132;-68
2023/06/11 04:28:38;;;;;;;17.00;12.57;;;;;;;16.08;100.00;96376.47;5025582;28;20071;-67
2023/06/11 04:31:04;;;;;;;16.40;12.40;;;;;;;16.19;100.00;96376.34;5038615;28;20036;-67
2023/06/11 04:33:33;;;;;;;19.33;13.30;;;;;;;16.27;100.00;96379.81;5046219;28;20036;-67
2023/06/11 04:36:07;;;;;;;16.60;12.50;;;;;;;16.34;100.00;96377.75;5046116;28;20047;-66
2023/06/11 04:38:33;;;;;;;17.15;12.60;;;;;;;16.48;100.00;96387.88;5046354;28;20033;-67
2023/06/11 04:41:00;;;;;;;14.85;11.48;;;;;;;16.65;100.00;96380.53;5045221;28;20032;-66
2023/06/11 04:43:25;;;;;;;15.80;11.38;;;;;;;16.73;100.00;96390.31;5020127;28;20132;-64
2023/06/11 04:45:55;;;;;;;18.02;11.68;;;;;;;16.74;100.00;96394.63;5025684;28;20128;-66
2023/06/11 04:48:27;;;;;;;18.23;12.10;;;;;;;17.42;100.00;96398.47;5020309;28;20629;-67
2023/06/11 04:50:53;;;;;;;15.23;11.82;;;;;;;17.99;100.00;96391.22;5024930;28;20048;-67
2023/06/11 04:53:22;;;;;;;14.90;10.27;;;;;;;18.47;100.00;96391.91;5020197;28;20053;-68
2023/06/11 04:55:54;;;;;;;13.00;9.93;;;;;;;18.74;99.50;96391.75;5025723;28;20041;-68
2023/06/11 04:58:23;;;;;;;15.95;10.40;;;;;;;19.33;94.01;96395.66;5019495;28;20038;-68
2023/06/11 05:00:50;;;;;;;13.48;10.40;;;;;;;19.03;97.10;96391.97;5024901;28;20080;-67
2023/06/11 05:03:18;;;;;;;13.52;10.45;;;;;;;18.82;98.15;96398.75;5019248;28;20135;-67
2023/06/11 05:05:51;;;;;;;13.68;10.32;;;;;;;18.88;96.97;96397.03;5024816;28;20045;-67
2023/06/11 05:08:24;;;;;;;14.13;10.13;;;;;;;19.54;91.69;96390.84;5019698;28;20041;-67
2023/06/11 05:10:53;;;;;;;13.13;10.02;;;;;;;19.22;94.23;96390.34;5025010;28;20041;-68
2023/06/11 05:13:22;;;;;;;13.07;10.40;;;;;;;20.13;87.95;96391.75;5019216;28;20040;-68
2023/06/11 05:15:48;;;;;;;13.43;10.13;;;;;;;19.19;96.89;96384.88;5025560;28;20138;-67
2023/06/11 05:18:14;;;;;;;15.77;11.30;;;;;;;18.94;95.34;96396.53;5018564;28;20065;-67
2023/06/11 05:20:40;;;;;;;13.75;10.82;;;;;;;18.93;96.57;96397.75;5024491;28;20556;-67
2023/06/11 05:23:05;;;;;;;16.00;10.00;;;;;;;19.33;94.47;96390.09;5018724;28;20049;-67
2023/06/11 05:25:31;;;;;;;13.52;10.00;;;;;;;20.05;89.17;96394.72;5024892;28;20096;-66
2023/06/11 05:28:01;;;;;;;14.27;11.43;;;;;;;19.08;93.25;96399.00;5024109;28;20525;-66
2023/06/11 05:30:36;;;;;;;13.48;10.07;;;;;;;19.86;89.34;96399.19;5019835;28;20103;-66
2023/06/11 05:33:02;;;;;;;13.18;9.93;;;;;;;20.40;87.54;96406.13;5022597;28;20044;-67
2023/06/11 05:35:28;;;;;;;15.32;10.85;;;;;;;20.03;89.36;96394.38;5022707;28;20033;-67
2023/06/11 05:37:55;;;;;;;11.80;10.05;;;;;;;20.47;86.92;96401.56;5024770;28;20049;-67
2023/06/11 05:40:21;;;;;;;14.00;10.90;;;;;;;19.87;89.51;96402.72;5019892;28;20033;-66
2023/06/11 05:42:47;;;;;;;11.85;9.70;;;;;;;20.44;85.87;96409.56;5021814;28;20509;-66
2023/06/11 05:45:12;;;;;;;13.07;10.52;;;;;;;21.03;83.95;96412.34;5019214;28;20073;-66
2023/06/11 05:47:38;;;;;;;13.88;10.93;;;;;;;19.25;90.38;96397.06;5024468;28;20037;-66
2023/06/11 05:50:03;;;;;;;12.38;9.82;;;;;;;20.33;87.54;96408.28;5021808;28;20056;-67
2023/06/11 05:52:29;;;;;;;13.60;10.40;;;;;;;20.49;83.99;96401.91;5022268;28;20045;-67
2023/06/11 05:54:54;;;;;;;12.35;10.00;;;;;;;19.81;88.23;96413.59;5024502;28;20045;-67
2023/06/11 05:57:21;;;;;;;16.98;11.20;;;;;;;19.72;90.53;96416.19;5019178;28;20049;-66
2023/06/11 05:59:47;;;;;;;12.50;10.93;;;;;;;19.74;89.85;96426.88;5024024;28;20044;-68
2023/06/11 06:02:13;;;;;;;13.05;10.52;;;;;;;19.57;91.39;96424.09;5018195;28;20038;-67
2023/06/11 06:04:38;;;;;;;14.60;11.57;;;;;;;18.91;96.31;96423.94;5023255;28;20033;-67
2023/06/11 06:07:04;;;;;;;15.18;11.20;;;;;;;19.70;92.49;96426.94;5020359;28;20103;-68
2023/06/11 06:09:30;;;;;;;20.95;10.82;;;;;;;19.57;92.25;96428.84;5006225;28;20139;-67
2023/06/11 06:11:55;;;;;;;13.10;10.05;;;;;;;20.71;85.57;96429.97;5024741;28;20139;-68
2023/06/11 06:14:21;;;;;;;13.95;10.57;;;;;;;19.95;87.22;96420.81;5021082;28;20045;-67
2023/06/11 06:16:47;;;;;;;13.88;10.45;;;;;;;19.86;91.12;96434.50;5025994;28;20045;-68
2023/06/11 06:19:12;;;;;;;14.23;11.07;;;;;;;20.56;86.11;96435.09;5018745;28;20033;-64
2023/06/11 06:21:38;;;;;;;11.88;9.77;;;;;;;21.05;81.77;96434.94;5023666;28;20041;-66
2023/06/11 06:24:03;;;;;;;12.13;9.77;;;;;;;21.32;80.18;96423.38;5020070;28;20144;-67
2023/06/11 06:26:29;;;;;;;15.15;10.45;;;;;;;20.57;84.27;96431.09;5019521;28;20095;-66
2023/06/11 06:28:54;;;;;;;13.27;9.60;;;;;;;20.83;83.59;96429.19;5022644;28;20038;-66
2023/06/11 06:31:22;;;;;;;10.80;9.23;;;;;;;20.87;83.34;96434.66;5017075;28;20541;-66
2023/06/11 06:33:49;;;;;;;12.15;9.35;;;;;;;20.32;86.62;96429.00;5023091;28;20102;-67
2023/06/11 06:36:14;;;;;;;16.15;10.85;;;;;;;20.77;81.83;96436.53;5018170;28;20048;-67
2023/06/11 06:38:40;;;;;;;13.10;10.50;;;;;;;20.29;85.73;96429.88;5022186;28;20029;-67
2023/06/11 06:41:06;;;;;;;14.25;10.55;;;;;;;20.42;83.84;96437.06;5019504;28;20469;-66
2023/06/11 06:43:33;;;;;;;15.73;10.48;;;;;;;20.36;84.96;96427.66;5023640;28;20065;-68
2023/06/11 06:45:58;;;;;;;13.73;10.70;;;;;;;20.61;84.11;96437.38;5024251;28;20048;-68
2023/06/11 06:48:24;;;;;;;15.32;10.23;;;;;;;20.22;88.03;96445.53;5018476;28;20045;-70
2023/06/11 06:50:49;;;;;;;11.95;10.10;;;;;;;20.57;84.39;96445.00;5023198;28;20132;-67
2023/06/11 06:53:15;;;;;;;12.90;10.45;;;;;;;21.63;79.53;96453.50;5016689;28;20046;-68
2023/06/11 06:55:40;;;;;;;13.90;11.05;;;;;;;19.96;87.07;96449.38;5022887;28;20052;-67
2023/06/11 06:58:06;;;;;;;18.90;12.80;;;;;;;19.55;89.72;96448.72;5018461;28;20041;-66
2023/06/11 07:00:32;;;;;;;13.18;11.30;;;;;;;20.05;88.71;96455.88;5022533;28;20045;-66
2023/06/11 07:02:58;;;;;;;15.18;10.77;;;;;;;21.03;84.62;96445.75;5020922;28;20050;-67
2023/06/11 07:05:23;;;;;;;14.07;10.68;;;;;;;21.83;79.67;96453.28;5017015;28;20132;-67
2023/06/11 07:07:48;;;;;;;15.05;9.15;;;;;;;23.60;69.17;96447.84;5022160;28;20033;-67
2023/06/11 07:10:14;;;;;;;11.40;10.02;;;;;;;21.52;77.00;96451.06;5017586;28;20450;-67
2023/06/11 07:12:39;;;;;;;14.95;11.05;;;;;;;20.43;83.96;96448.94;5022823;28;20037;-66
2023/06/11 07:15:05;;;;;;;13.30;10.98;;;;;;;20.55;83.87;96451.00;5017059;28;20049;-66
2023/06/11 07:17:31;;;;;;;14.73;11.45;;;;;;;20.48;84.13;96465.13;5021138;28;20049;-66
2023/06/11 07:19:56;;;;;;;11.48;9.85;;;;;;;21.46;78.63;96463.19;5022737;28;20394;-68
2023/06/11 07:22:21;;;;;;;12.27;9.98;;;;;;;21.98;77.01;96452.81;5018522;28;20636;-67
2023/06/11 07:24:48;;;;;;;12.30;9.73;;;;;;;23.01;71.31;96454.03;5024059;28;20041;-66
2023/06/11 07:27:14;;;;;;;12.25;9.13;;;;;;;25.84;58.30;96451.75;5017528;28;20037;-66
2023/06/11 07:29:40;;;;;;;11.18;9.23;;;;;;;23.32;67.26;96461.69;5022471;28;20395;-65
2023/06/11 07:32:08;;;;;;;12.68;8.60;;;;;;;24.97;59.99;96456.97;5018246;28;20037;-65
2023/06/11 07:34:35;;;;;;;12.60;9.32;;;;;;;24.77;59.46;96452.59;5020743;28;20375;-68
2023/06/11 07:37:00;;;;;;;11.25;8.45;;;;;;;24.26;59.71;96444.78;5020836;28;20044;-67
2023/06/11 07:39:26;;;;;;;10.35;9.23;;;;;;;21.70;72.34;96467.22;5019933;28;20057;-66
2023/06/11 07:41:52;;;;;;;12.45;8.93;;;;;;;21.83;72.46;96461.63;5024822;28;20107;-66
2023/06/11 07:44:17;;;;;;;11.57;9.25;;;;;;;21.46;75.72;96458.41;5018488;28;20045;-66
2023/06/11 07:46:46;;;;;;;13.32;8.95;;;;;;;21.26;77.59;96461.34;5020903;28;20064;-66
2023/06/11 07:49:11;;;;;;;10.98;8.38;;;;;;;22.00;72.67;96469.88;5017117;28;20382;-66
2023/06/11 07:51:37;;;;;;;11.25;8.38;;;;;;;23.80;66.41;96473.41;5021123;28;20037;-67
2023/06/11 07:54:04;;;;;;;12.38;7.78;;;;;;;23.90;65.70;96468.66;5019649;28;20041;-64
2023/06/11 07:56:30;;;;;;;13.52;8.20;;;;;;;22.84;67.73;96464.63;5018649;28;20037;-65
2023/06/11 07:58:55;;;;;;;9.35;7.72;;;;;;;23.06;67.28;96467.44;5022179;28;20360;-65
2023/06/11 08:01:20;;;;;;;9.23;7.85;;;;;;;22.37;69.71;96464.69;5016039;28;20042;-65
2023/06/11 08:03:46;;;;;;;10.15;8.77;;;;;;;21.61;73.23;96460.75;5021646;28;20057;-66
2023/06/11 08:06:11;;;;;;;14.50;9.27;;;;;;;21.55;74.58;96466.91;5016892;28;20041;-67
2023/06/11 08:08:37;;;;;;;11.15;8.95;;;;;;;21.23;76.25;96458.69;5021551;28;20399;-66
2023/06/11 08:11:02;;;;;;;8.82;7.47;;;;;;;22.25;70.29;96455.88;5019471;28;20041;-67
2023/06/11 08:13:28;;;;;;;10.35;8.98;;;;;;;21.75;73.18;96458.31;5018544;28;20367;-67
2023/06/11 08:15:53;;;;;;;11.20;8.52;;;;;;;21.94;74.33;96448.13;5021888;28;20069;-67
2023/06/11 08:18:18;;;;;;;10.02;8.13;;;;;;;22.90;68.35;96456.44;5015457;28;20045;-67
2023/06/11 08:20:44;;;;;;;9.77;7.78;;;;;;;22.70;70.04;96456.75;5019865;28;20042;-67
2023/06/11 08:23:10;;;;;;;10.18;8.55;;;;;;;22.51;69.65;96453.03;5016638;28;20129;-67
2023/06/11 08:25:36;;;;;;;10.77;7.63;;;;;;;21.72;72.92;96455.63;5020836;28;20566;-67
2023/06/11 08:28:02;;;;;;;11.93;8.38;;;;;;;21.84;74.36;96456.84;5022139;28;20593;-66
2023/06/11 08:30:27;;;;;;;10.32;8.43;;;;;;;22.81;69.63;96450.78;5017769;28;20050;-67
2023/06/11 08:32:53;;;;;;;9.27;7.65;;;;;;;22.17;71.32;96451.78;5021372;28;20502;-66
2023/06/11 08:35:20;;;;;;;9.90;7.07;;;;;;;23.64;66.20;96443.69;5016441;28;20034;-68
2023/06/11 08:37:46;;;;;;;9.40;6.80;;;;;;;24.28;61.92;96442.31;5022339;28;20072;-67
2023/06/11 08:40:12;;;;;;;7.90;6.20;;;;;;;25.56;57.06;96446.25;5016911;28;20116;-68
2023/06/11 08:42:38;;;;;;;8.80;6.57;;;;;;;25.35;55.13;96450.06;5021120;28;20129;-67
2023/06/11 08:45:04;;;;;;;8.40;6.70;;;;;;;25.02;54.91;96439.53;5016403;28;20425;-67
2023/06/11 08:47:33;;;;;;;7.65;6.40;;;;;;;23.90;59.92;96428.72;5020357;28;20061;-66
2023/06/11 08:49:59;;;;;;;9.82;7.05;;;;;;;23.98;61.75;96444.72;5022343;28;20049;-66
2023/06/11 08:52:30;;;;;;;8.63;6.93;;;;;;;23.87;61.05;96443.63;5009751;28;20577;-67
2023/06/11 08:54:55;;;;;;;7.53;6.30;;;;;;;24.52;57.96;96445.28;5033721;28;20069;-66
2023/06/11 08:57:21;;;;;;;8.10;6.90;;;;;;;23.19;62.37;96447.03;5015114;28;20480;-66
2023/06/11 08:59:46;;;;;;;9.15;6.97;;;;;;;23.99;61.27;96442.72;5021698;28;20052;-66
2023/06/11 09:02:11;;;;;;;7.93;6.00;;;;;;;25.24;56.45;96449.75;5018822;28;20046;-67
2023/06/11 09:04:37;;;;;;;6.93;5.95;;;;;;;23.80;60.11;96442.66;5025213;28;20478;-66
2023/06/11 09:07:03;;;;;;;9.52;6.43;;;;;;;23.63;61.40;96442.13;5023275;28;20048;-66
2023/06/11 09:09:29;;;;;;;10.63;6.85;;;;;;;22.92;62.93;96445.56;5023290;28;20045;-66
2023/06/11 09:11:54;;;;;;;9.45;6.25;;;;;;;23.98;60.36;96436.34;5020726;28;20079;-66
2023/06/11 09:14:21;;;;;;;7.53;6.00;;;;;;;23.84;58.09;96431.31;5020155;28;20042;-67
2023/06/11 09:16:48;;;;;;;9.52;6.45;;;;;;;23.89;61.34;96444.72;5024818;28;20037;-66
2023/06/11 09:19:18;;;;;;;6.28;5.68;;;;;;;25.80;53.77;96444.75;5019367;28;20454;-66
2023/06/11 09:21:55;;;;;;;6.53;5.65;;;;;;;23.83;58.59;96441.75;5039054;28;20059;-66
2023/06/11 09:24:21;;;;;;;6.95;5.25;;;;;;;23.65;59.56;96445.22;5034245;28;20049;-66
2023/06/11 09:26:55;;;;;;;5.72;5.03;;;;;;;23.67;56.78;96445.53;5024835;28;20479;-66
2023/06/11 09:29:25;;;;;;;7.28;5.20;;;;;;;24.09;56.46;96446.31;5022909;28;20072;-66
2023/06/11 09:32:07;;;;;;;5.78;4.57;;;;;;;24.43;54.75;96439.66;5044305;28;20486;-66
2023/06/11 09:34:33;;;;;;;7.88;5.00;;;;;;;24.01;55.32;96443.03;5043228;28;20568;-66
2023/06/11 09:37:00;;;;;;;6.57;5.15;;;;;;;23.97;55.22;96437.59;5044569;28;20037;-67
2023/06/11 09:39:27;;;;;;;6.03;4.55;;;;;;;23.79;56.15;96437.53;5039810;28;20045;-66
2023/06/11 09:41:52;;;;;;;5.55;4.72;;;;;;;23.86;57.21;96437.25;5037365;28;20043;-66
2023/06/11 09:44:19;;;;;;;5.97;4.78;;;;;;;24.63;55.74;96436.44;5018985;28;20038;-68
2023/06/11 09:46:46;;;;;;;5.47;4.25;;;;;;;24.23;56.25;96431.72;5023922;28;20041;-66
2023/06/11 09:49:13;;;;;;;6.18;4.43;;;;;;;23.72;57.15;96438.56;5019126;28;20132;-66
2023/06/11 09:51:40;;;;;;;6.65;5.35;;;;;;;23.47;57.48;96433.97;5024409;28;20038;-65
2023/06/11 09:54:10;;;;;;;5.82;4.50;;;;;;;24.23;56.21;96431.72;5018308;28;20059;-65
2023/06/11 09:56:37;;;;;;;8.00;4.28;;;;;;;24.11;57.10;96433.44;5024542;28;20494;-65
2023/06/11 09:59:03;;;;;;;6.38;3.92;;;;;;;25.27;52.39;96432.03;5022350;28;20045;-65
2023/06/11 10:01:29;;;;;;;5.45;4.00;;;;;;;24.29;51.72;96435.47;5020356;28;20111;-66
2023/06/11 10:04:04;;;;;;;5.78;3.78;;;;;;;24.93;51.83;96433.94;5017587;28;20041;-65
2023/06/11 10:06:33;;;;;;;5.30;3.90;;;;;;;25.01;51.73;96421.16;5024248;28;20048;-66
2023/06/11 10:09:03;;;;;;;4.78;3.70;;;;;;;25.07;51.34;96433.28;5024067;28;20045;-66
2023/06/11 10:11:38;;;;;;;4.50;3.85;;;;;;;24.38;52.88;96432.69;5022905;28;20129;-67
2023/06/11 10:14:05;;;;;;;7.28;3.90;;;;;;;24.81;52.86;96424.44;5019355;28;20045;-62
2023/06/11 10:16:31;;;;;;;4.53;3.60;;;;;;;25.05;52.07;96429.38;5023933;28;20041;-67
2023/06/11 10:19:10;;;;;;;4.47;3.40;;;;;;;25.27;50.66;96432.03;5023602;28;20037;-66
2023/06/11 10:21:50;;;;;;;4.68;3.53;;;;;;;25.11;50.27;96435.94;5023131;28;20433;-66
2023/06/11 10:24:23;;;;;;;5.32;4.18;;;;;;;25.29;49.40;96429.53;5017631;28;20045;-66
2023/06/11 10:27:05;;;;;;;6.25;3.78;;;;;;;25.69;48.36;96432.00;5023658;28;20041;-67
2023/06/11 10:29:39;;;;;;;4.93;3.67;;;;;;;25.03;50.52;96438.28;5034349;28;20194;-67
2023/06/11 10:32:15;;;;;;;5.13;3.78;;;;;;;25.41;49.38;96430.56;5029433;28;20049;-65
2023/06/11 10:34:41;;;;;;;9.30;4.40;;;;;;;25.26;49.40;96434.03;5045638;28;20037;-67
2023/06/11 10:37:07;;;;;;;7.93;5.40;;;;;;;26.32;48.23;96434.19;5039321;28;20370;-66
2023/06/11 10:39:32;;;;;;;6.43;3.42;;;;;;;26.90;46.54;96432.00;5043087;28;20048;-67
2023/06/11 10:42:02;;;;;;;11.13;3.58;;;;;;;25.92;45.65;96435.34;5034920;28;20049;-66
2023/06/11 10:44:32;;;;;;;5.03;3.85;;;;;;;26.50;44.70;96436.06;5018621;28;20732;-66
2023/06/11 10:47:00;;;;;;;6.53;3.30;;;;;;;24.80;46.54;96425.72;5029285;28;20450;-65
2023/06/11 10:49:26;;;;;;;4.20;3.25;;;;;;;24.89;47.80;96428.50;5020123;28;20386;-67
2023/06/11 10:51:53;;;;;;;5.18;3.67;;;;;;;24.80;47.01;96415.28;5023969;28;20043;-67
2023/06/11 10:54:26;;;;;;;4.55;3.78;;;;;;;25.45;45.98;96422.78;5017756;28;20045;-68
2023/06/11 10:56:53;;;;;;;5.30;3.75;;;;;;;25.88;44.86;96426.34;5023295;28;20052;-67
2023/06/11 10:59:20;;;;;;;6.32;4.00;;;;;;;25.78;46.06;96417.16;5018574;28;20063;-67
2023/06/11 11:01:46;;;;;;;8.80;4.00;;;;;;;25.83;45.53;96412.94;5022611;28;20060;-67
2023/06/11 11:04:11;;;;;;;6.32;4.07;;;;;;;26.17;45.72;96419.34;5017840;28;20257;-67
2023/06/11 11:06:38;;;;;;;5.85;4.00;;;;;;;25.48;44.88;96411.41;5021481;28;20386;-67
2023/06/11 11:09:04;;;;;;;8.35;4.68;;;;;;;25.87;44.13;96411.50;5018916;28;20129;-64
2023/06/11 11:11:30;;;;;;;5.20;3.58;;;;;;;25.66;43.68;96418.16;5023285;28;20136;-67
2023/06/11 11:13:58;;;;;;;5.32;3.60;;;;;;;25.69;43.65;96418.00;5021499;28;20065;-65
2023/06/11 11:16:24;;;;;;;5.03;3.47;;;;;;;25.81;43.84;96424.66;4995949;28;20707;-67
2023/06/11 11:18:50;;;;;;;6.00;3.75;;;;;;;25.43;44.38;96414.84;5002467;28;20428;-70
2023/06/11 11:21:17;;;;;;;4.75;4.25;;;;;;;26.05;46.04;96415.50;4998169;28;20134;-67